createdAt,value
2022-09-26T00:02:47.314Z,57.61
2022-09-26T00:12:53.477Z,57.69
2022-09-26T00:23:00.574Z,57.83
2022-09-26T00:33:07.170Z,57.91
2022-09-26T00:43:13.842Z,57.84
2022-09-26T00:53:20.310Z,57.92
2022-09-26T01:03:26.110Z,58.12
2022-09-26T01:13:32.154Z,58.21
2022-09-26T01:23:38.343Z,58.44
2022-09-26T01:33:44.626Z,58.33
2022-09-26T01:43:50.905Z,58.51
2022-09-26T01:53:57.030Z,58.43
2022-09-26T02:04:03.183Z,58.79
2022-09-26T02:14:09.149Z,58.49
2022-09-26T02:24:15.235Z,58.62
2022-09-26T02:34:21.154Z,58.68
2022-09-26T02:44:27.214Z,58.74
2022-09-26T02:54:34.195Z,58.74
2022-09-26T03:04:40.759Z,58.86
2022-09-26T03:14:46.732Z,58.70
2022-09-26T03:24:52.925Z,58.80
2022-09-26T03:34:58.958Z,58.74
2022-09-26T03:45:05.487Z,58.87
2022-09-26T03:55:11.959Z,58.98
2022-09-26T04:05:18.642Z,58.97
2022-09-26T04:15:24.981Z,58.98
2022-09-26T04:25:30.967Z,59.05
2022-09-26T04:35:37.039Z,58.93
2022-09-26T04:45:43.218Z,58.97
2022-09-26T04:55:49.869Z,59.01
2022-09-26T05:05:55.965Z,58.94
2022-09-26T05:16:02.486Z,59.08
2022-09-26T05:26:08.767Z,59.05
2022-09-26T05:36:15.659Z,59.11
2022-09-26T05:46:22.036Z,59.09
2022-09-26T05:56:28.509Z,59.04
2022-09-26T06:06:34.502Z,59.00
2022-09-26T06:16:41.128Z,59.14
2022-09-26T06:26:47.412Z,58.99
2022-09-26T06:36:53.897Z,58.98
2022-09-26T06:47:00.164Z,58.94
2022-09-26T06:57:06.346Z,58.93
2022-09-26T07:07:13.215Z,58.98
2022-09-26T07:17:20.055Z,58.97
2022-09-26T07:27:27.089Z,57.79
2022-09-26T07:37:34.227Z,57.30
2022-09-26T07:47:41.499Z,57.09
2022-09-26T07:57:48.704Z,56.92
2022-09-26T08:07:55.499Z,56.66
2022-09-26T08:18:02.694Z,56.31
2022-09-26T08:28:09.483Z,56.43
2022-09-26T08:38:16.258Z,56.17
2022-09-26T08:48:23.194Z,55.94
2022-09-26T08:58:29.941Z,55.89
2022-09-26T09:08:36.920Z,55.80
2022-09-26T09:18:43.570Z,55.72
2022-09-26T09:28:50.386Z,55.68
2022-09-26T09:38:57.527Z,55.68
2022-09-26T09:49:04.504Z,55.39
2022-09-26T09:59:11.575Z,55.62
2022-09-26T10:09:39.526Z,55.39
2022-09-26T10:19:30.572Z,55.23
2022-09-26T10:29:37.798Z,55.33
2022-09-26T10:39:44.821Z,55.41
2022-09-26T10:49:51.661Z,55.14
2022-09-26T10:59:58.666Z,55.00
2022-09-26T11:10:05.811Z,55.17
2022-09-26T11:20:12.787Z,55.55
2022-09-26T11:30:19.773Z,56.00
2022-09-26T11:40:26.156Z,55.30
2022-09-26T11:50:33.156Z,55.00
2022-09-26T12:00:39.290Z,55.16
2022-09-26T12:10:45.988Z,55.13
2022-09-26T12:20:52.629Z,55.20
2022-09-26T12:30:58.586Z,55.08
2022-09-26T12:41:05.911Z,55.11
2022-09-26T12:51:12.721Z,54.73
2022-09-26T13:01:20.982Z,54.11
2022-09-26T13:11:32.280Z,54.16
2022-09-26T13:21:39.910Z,54.14
2022-09-26T13:31:46.099Z,54.50
2022-09-26T13:41:52.272Z,54.02
2022-09-26T13:51:58.258Z,54.01
2022-09-26T14:02:04.825Z,54.13
2022-09-26T14:12:11.619Z,54.11
2022-09-26T14:22:18.155Z,54.26
2022-09-26T14:32:24.380Z,54.41
2022-09-26T14:42:31.213Z,54.42
2022-09-26T14:52:37.780Z,54.57
2022-09-26T15:02:44.228Z,54.35
2022-09-26T15:12:50.695Z,54.14
2022-09-26T15:22:57.903Z,54.37
2022-09-26T15:33:04.989Z,54.48
2022-09-26T15:43:11.796Z,54.46
2022-09-26T15:53:18.766Z,54.36
2022-09-26T16:03:25.471Z,54.39
2022-09-26T16:13:32.314Z,54.30
2022-09-26T16:23:38.209Z,54.35
2022-09-26T16:33:44.163Z,54.54
2022-09-26T16:43:50.364Z,55.64
2022-09-26T16:53:56.869Z,54.66
2022-09-26T17:04:02.586Z,54.22
2022-09-26T17:14:08.705Z,54.03
2022-09-26T17:24:15.146Z,54.61
2022-09-26T17:34:22.335Z,55.00
2022-09-26T17:44:28.807Z,54.50
2022-09-26T17:54:35.743Z,54.89
2022-09-26T18:04:42.680Z,56.32
2022-09-26T18:14:48.968Z,57.52
2022-09-26T18:24:55.532Z,57.67
2022-09-26T18:35:02.447Z,58.31
2022-09-26T18:45:08.922Z,59.42
2022-09-26T18:55:14.970Z,59.56
2022-09-26T19:05:20.984Z,59.33
2022-09-26T19:15:27.246Z,58.80
2022-09-26T19:25:33.900Z,58.28
2022-09-26T19:35:40.528Z,58.69
2022-09-26T19:45:47.159Z,58.43
2022-09-26T19:55:53.448Z,59.01
2022-09-26T20:05:59.713Z,58.16
2022-09-26T20:16:06.313Z,58.03
2022-09-26T20:26:12.481Z,58.30
2022-09-26T20:36:19.330Z,58.65
2022-09-26T20:46:26.268Z,58.79
2022-09-26T20:56:33.200Z,58.87
2022-09-26T21:06:40.127Z,57.68
2022-09-26T21:16:47.646Z,57.71
2022-09-26T21:26:54.649Z,57.42
2022-09-26T21:37:01.386Z,57.29
2022-09-26T21:47:08.667Z,57.13
2022-09-26T21:57:15.410Z,57.22
2022-09-26T22:07:22.352Z,57.48
2022-09-26T22:18:49.142Z,56.89
2022-09-26T22:28:55.182Z,56.89
2022-09-26T22:39:02.092Z,57.97
2022-09-26T22:49:09.166Z,56.81
2022-09-26T22:59:16.799Z,56.99
2022-09-26T23:09:24.245Z,57.53
2022-09-26T23:19:31.697Z,57.31
2022-09-26T23:29:38.694Z,57.07
2022-09-26T23:39:45.838Z,57.02
2022-09-26T23:49:53.289Z,57.67
